sensor_id;sensor_type;location;lat;lon;timestamp;P1;durP1;ratioP1;P2;durP2;ratioP2
75261;SDS011;63859;51.064;4.580;2022-12-31T00:00:46;2.05;;;1.38;;
75261;SDS011;63859;51.064;4.580;2022-12-31T00:03:11;3.28;;;1.73;;
75261;SDS011;63859;51.064;4.580;2022-12-31T00:05:37;1.70;;;1.50;;
75261;SDS011;63859;51.064;4.580;2022-12-31T00:08:03;2.10;;;1.33;;
75261;SDS011;63859;51.064;4.580;2022-12-31T00:10:29;1.80;;;1.58;;
75261;SDS011;63859;51.064;4.580;2022-12-31T00:12:54;2.97;;;1.70;;
75261;SDS011;63859;51.064;4.580;2022-12-31T00:15:20;2.50;;;1.50;;
75261;SDS011;63859;51.064;4.580;2022-12-31T00:17:46;1.50;;;1.40;;
75261;SDS011;63859;51.064;4.580;2022-12-31T00:20:11;2.28;;;1.40;;
75261;SDS011;63859;51.064;4.580;2022-12-31T00:22:37;2.25;;;1.30;;
75261;SDS011;63859;51.064;4.580;2022-12-31T00:25:02;1.40;;;1.30;;
75261;SDS011;63859;51.064;4.580;2022-12-31T00:27:29;3.45;;;1.30;;
75261;SDS011;63859;51.064;4.580;2022-12-31T00:29:55;2.17;;;1.27;;
75261;SDS011;63859;51.064;4.580;2022-12-31T00:32:21;1.58;;;1.10;;
75261;SDS011;63859;51.064;4.580;2022-12-31T00:34:46;2.70;;;1.20;;
75261;SDS011;63859;51.064;4.580;2022-12-31T00:37:12;4.10;;;1.05;;
75261;SDS011;63859;51.064;4.580;2022-12-31T00:39:37;1.38;;;1.20;;
75261;SDS011;63859;51.064;4.580;2022-12-31T00:42:03;0.85;;;0.85;;
75261;SDS011;63859;51.064;4.580;2022-12-31T00:44:29;0.90;;;0.90;;
75261;SDS011;63859;51.064;4.580;2022-12-31T00:46:54;0.90;;;0.90;;
75261;SDS011;63859;51.064;4.580;2022-12-31T00:49:20;0.85;;;0.80;;
75261;SDS011;63859;51.064;4.580;2022-12-31T00:51:46;0.80;;;0.80;;
75261;SDS011;63859;51.064;4.580;2022-12-31T00:54:11;0.73;;;0.73;;
75261;SDS011;63859;51.064;4.580;2022-12-31T00:56:37;0.70;;;0.70;;
75261;SDS011;63859;51.064;4.580;2022-12-31T00:59:02;0.73;;;0.73;;
75261;SDS011;63859;51.064;4.580;2022-12-31T01:01:30;1.38;;;0.90;;
75261;SDS011;63859;51.064;4.580;2022-12-31T01:04:02;0.50;;;0.50;;
75261;SDS011;63859;51.064;4.580;2022-12-31T01:06:29;1.00;;;0.90;;
75261;SDS011;63859;51.064;4.580;2022-12-31T01:08:55;0.50;;;0.50;;
75261;SDS011;63859;51.064;4.580;2022-12-31T01:11:21;2.20;;;0.85;;
75261;SDS011;63859;51.064;4.580;2022-12-31T01:13:55;1.00;;;0.80;;
75261;SDS011;63859;51.064;4.580;2022-12-31T01:16:33;0.60;;;0.60;;
75261;SDS011;63859;51.064;4.580;2022-12-31T01:19:02;0.40;;;0.40;;
75261;SDS011;63859;51.064;4.580;2022-12-31T01:21:30;0.52;;;0.52;;
75261;SDS011;63859;51.064;4.580;2022-12-31T01:23:56;3.72;;;0.55;;
75261;SDS011;63859;51.064;4.580;2022-12-31T01:26:22;0.40;;;0.40;;
75261;SDS011;63859;51.064;4.580;2022-12-31T01:28:48;0.40;;;0.40;;
75261;SDS011;63859;51.064;4.580;2022-12-31T01:31:14;2.20;;;0.55;;
75261;SDS011;63859;51.064;4.580;2022-12-31T01:33:41;0.80;;;0.50;;
75261;SDS011;63859;51.064;4.580;2022-12-31T01:36:12;0.45;;;0.45;;
75261;SDS011;63859;51.064;4.580;2022-12-31T01:38:42;0.50;;;0.50;;
75261;SDS011;63859;51.064;4.580;2022-12-31T01:41:10;0.55;;;0.50;;
75261;SDS011;63859;51.064;4.580;2022-12-31T01:43:49;0.38;;;0.38;;
75261;SDS011;63859;51.064;4.580;2022-12-31T01:46:27;0.77;;;0.60;;
75261;SDS011;63859;51.064;4.580;2022-12-31T01:49:19;0.43;;;0.43;;
75261;SDS011;63859;51.064;4.580;2022-12-31T01:51:53;0.40;;;0.40;;
75261;SDS011;63859;51.064;4.580;2022-12-31T01:54:23;0.50;;;0.50;;
75261;SDS011;63859;51.064;4.580;2022-12-31T01:56:51;0.50;;;0.50;;
75261;SDS011;63859;51.064;4.580;2022-12-31T01:59:19;0.57;;;0.57;;
75261;SDS011;63859;51.064;4.580;2022-12-31T02:01:48;0.93;;;0.50;;
75261;SDS011;63859;51.064;4.580;2022-12-31T02:04:18;1.00;;;0.52;;
75261;SDS011;63859;51.064;4.580;2022-12-31T02:06:52;0.50;;;0.50;;
75261;SDS011;63859;51.064;4.580;2022-12-31T02:09:23;0.40;;;0.40;;
75261;SDS011;63859;51.064;4.580;2022-12-31T02:11:49;0.63;;;0.50;;
75261;SDS011;63859;51.064;4.580;2022-12-31T02:14:16;0.63;;;0.60;;
75261;SDS011;63859;51.064;4.580;2022-12-31T02:30:44;0.43;;;0.43;;
75261;SDS011;63859;51.064;4.580;2022-12-31T02:33:37;0.52;;;0.52;;
75261;SDS011;63859;51.064;4.580;2022-12-31T02:36:25;0.60;;;0.60;;
75261;SDS011;63859;51.064;4.580;2022-12-31T02:38:55;0.60;;;0.60;;
75261;SDS011;63859;51.064;4.580;2022-12-31T02:41:22;0.60;;;0.60;;
75261;SDS011;63859;51.064;4.580;2022-12-31T02:44:26;0.75;;;0.70;;
75261;SDS011;63859;51.064;4.580;2022-12-31T02:46:54;1.27;;;0.60;;
75261;SDS011;63859;51.064;4.580;2022-12-31T02:49:29;0.73;;;0.73;;
75261;SDS011;63859;51.064;4.580;2022-12-31T02:52:05;2.20;;;0.80;;
75261;SDS011;63859;51.064;4.580;2022-12-31T03:00:14;2.97;;;0.90;;
75261;SDS011;63859;51.064;4.580;2022-12-31T03:03:00;3.55;;;1.10;;
75261;SDS011;63859;51.064;4.580;2022-12-31T03:05:27;2.88;;;1.02;;
75261;SDS011;63859;51.064;4.580;2022-12-31T03:07:57;5.00;;;1.23;;
75261;SDS011;63859;51.064;4.580;2022-12-31T03:10:23;3.58;;;1.08;;
75261;SDS011;63859;51.064;4.580;2022-12-31T03:12:49;5.85;;;1.52;;
75261;SDS011;63859;51.064;4.580;2022-12-31T03:15:20;5.07;;;1.27;;
75261;SDS011;63859;51.064;4.580;2022-12-31T03:17:56;1.80;;;1.00;;
75261;SDS011;63859;51.064;4.580;2022-12-31T03:20:36;6.40;;;1.20;;
75261;SDS011;63859;51.064;4.580;2022-12-31T03:23:27;4.22;;;1.20;;
75261;SDS011;63859;51.064;4.580;2022-12-31T03:25:58;3.30;;;1.10;;
75261;SDS011;63859;51.064;4.580;2022-12-31T03:28:26;1.92;;;0.98;;
75261;SDS011;63859;51.064;4.580;2022-12-31T03:30:54;5.38;;;1.25;;
75261;SDS011;63859;51.064;4.580;2022-12-31T03:33:25;5.15;;;1.23;;
75261;SDS011;63859;51.064;4.580;2022-12-31T03:35:54;1.75;;;0.90;;
75261;SDS011;63859;51.064;4.580;2022-12-31T03:38:19;3.67;;;1.10;;
75261;SDS011;63859;51.064;4.580;2022-12-31T03:40:49;1.83;;;1.02;;
75261;SDS011;63859;51.064;4.580;2022-12-31T03:43:17;3.20;;;0.70;;
75261;SDS011;63859;51.064;4.580;2022-12-31T03:45:46;2.63;;;0.95;;
75261;SDS011;63859;51.064;4.580;2022-12-31T03:48:13;3.92;;;0.88;;
75261;SDS011;63859;51.064;4.580;2022-12-31T03:50:39;3.08;;;1.10;;
75261;SDS011;63859;51.064;4.580;2022-12-31T03:53:04;1.85;;;1.13;;
75261;SDS011;63859;51.064;4.580;2022-12-31T03:55:30;1.83;;;0.90;;
75261;SDS011;63859;51.064;4.580;2022-12-31T03:57:56;3.10;;;1.02;;
75261;SDS011;63859;51.064;4.580;2022-12-31T04:00:22;2.65;;;1.00;;
75261;SDS011;63859;51.064;4.580;2022-12-31T04:02:48;1.45;;;0.90;;
75261;SDS011;63859;51.064;4.580;2022-12-31T04:05:15;4.60;;;0.90;;
75261;SDS011;63859;51.064;4.580;2022-12-31T04:07:41;4.15;;;0.85;;
75261;SDS011;63859;51.064;4.580;2022-12-31T04:10:08;2.78;;;0.85;;
75261;SDS011;63859;51.064;4.580;2022-12-31T04:12:35;1.92;;;0.70;;
75261;SDS011;63859;51.064;4.580;2022-12-31T04:15:01;1.95;;;0.95;;
75261;SDS011;63859;51.064;4.580;2022-12-31T04:17:27;5.28;;;1.25;;
75261;SDS011;63859;51.064;4.580;2022-12-31T04:19:52;2.20;;;0.90;;
75261;SDS011;63859;51.064;4.580;2022-12-31T04:22:18;2.83;;;0.95;;
75261;SDS011;63859;51.064;4.580;2022-12-31T04:24:44;3.35;;;1.00;;
75261;SDS011;63859;51.064;4.580;2022-12-31T04:27:11;3.90;;;0.90;;
75261;SDS011;63859;51.064;4.580;2022-12-31T04:29:37;1.50;;;0.75;;
75261;SDS011;63859;51.064;4.580;2022-12-31T04:32:03;2.90;;;1.08;;
75261;SDS011;63859;51.064;4.580;2022-12-31T04:34:30;1.25;;;0.63;;
75261;SDS011;63859;51.064;4.580;2022-12-31T04:36:55;3.42;;;0.80;;
75261;SDS011;63859;51.064;4.580;2022-12-31T04:39:21;3.70;;;0.90;;
75261;SDS011;63859;51.064;4.580;2022-12-31T04:41:47;1.30;;;0.70;;
75261;SDS011;63859;51.064;4.580;2022-12-31T04:44:13;4.07;;;0.75;;
75261;SDS011;63859;51.064;4.580;2022-12-31T04:46:39;2.35;;;1.00;;
75261;SDS011;63859;51.064;4.580;2022-12-31T04:49:04;2.65;;;0.88;;
75261;SDS011;63859;51.064;4.580;2022-12-31T04:51:30;5.05;;;1.00;;
75261;SDS011;63859;51.064;4.580;2022-12-31T04:53:56;3.03;;;1.20;;
75261;SDS011;63859;51.064;4.580;2022-12-31T04:56:22;3.13;;;0.82;;
75261;SDS011;63859;51.064;4.580;2022-12-31T04:58:48;3.72;;;0.80;;
75261;SDS011;63859;51.064;4.580;2022-12-31T05:01:14;1.60;;;0.60;;
75261;SDS011;63859;51.064;4.580;2022-12-31T05:03:40;2.05;;;0.70;;
75261;SDS011;63859;51.064;4.580;2022-12-31T05:06:07;1.45;;;0.68;;
75261;SDS011;63859;51.064;4.580;2022-12-31T05:08:37;1.52;;;0.77;;
75261;SDS011;63859;51.064;4.580;2022-12-31T05:11:03;2.72;;;0.75;;
75261;SDS011;63859;51.064;4.580;2022-12-31T05:13:29;2.45;;;0.75;;
75261;SDS011;63859;51.064;4.580;2022-12-31T05:15:55;2.83;;;0.80;;
75261;SDS011;63859;51.064;4.580;2022-12-31T05:18:21;4.00;;;0.75;;
75261;SDS011;63859;51.064;4.580;2022-12-31T05:20:47;2.50;;;0.70;;
75261;SDS011;63859;51.064;4.580;2022-12-31T05:23:14;3.17;;;0.85;;
75261;SDS011;63859;51.064;4.580;2022-12-31T05:25:40;4.22;;;0.95;;
75261;SDS011;63859;51.064;4.580;2022-12-31T05:28:08;2.28;;;0.80;;
75261;SDS011;63859;51.064;4.580;2022-12-31T05:30:33;1.10;;;0.68;;
75261;SDS011;63859;51.064;4.580;2022-12-31T05:32:59;1.95;;;0.73;;
75261;SDS011;63859;51.064;4.580;2022-12-31T05:35:25;3.78;;;0.90;;
75261;SDS011;63859;51.064;4.580;2022-12-31T05:37:50;2.15;;;0.73;;
75261;SDS011;63859;51.064;4.580;2022-12-31T05:40:16;2.80;;;0.80;;
75261;SDS011;63859;51.064;4.580;2022-12-31T05:42:42;2.80;;;0.80;;
75261;SDS011;63859;51.064;4.580;2022-12-31T05:45:07;1.23;;;0.75;;
75261;SDS011;63859;51.064;4.580;2022-12-31T05:47:37;3.80;;;0.80;;
75261;SDS011;63859;51.064;4.580;2022-12-31T05:50:04;1.00;;;0.73;;
75261;SDS011;63859;51.064;4.580;2022-12-31T05:52:30;4.38;;;0.73;;
75261;SDS011;63859;51.064;4.580;2022-12-31T05:54:56;2.00;;;0.80;;
75261;SDS011;63859;51.064;4.580;2022-12-31T05:57:22;3.97;;;0.80;;
75261;SDS011;63859;51.064;4.580;2022-12-31T05:59:47;1.95;;;0.80;;
75261;SDS011;63859;51.064;4.580;2022-12-31T06:02:13;4.97;;;0.82;;
75261;SDS011;63859;51.064;4.580;2022-12-31T06:04:38;1.52;;;0.70;;
75261;SDS011;63859;51.064;4.580;2022-12-31T06:07:04;2.75;;;0.80;;
75261;SDS011;63859;51.064;4.580;2022-12-31T06:09:30;2.55;;;0.80;;
75261;SDS011;63859;51.064;4.580;2022-12-31T06:11:55;1.83;;;0.80;;
75261;SDS011;63859;51.064;4.580;2022-12-31T06:14:21;3.67;;;1.00;;
75261;SDS011;63859;51.064;4.580;2022-12-31T06:16:47;4.78;;;0.98;;
75261;SDS011;63859;51.064;4.580;2022-12-31T06:19:12;5.55;;;1.02;;
75261;SDS011;63859;51.064;4.580;2022-12-31T06:21:38;5.70;;;1.23;;
75261;SDS011;63859;51.064;4.580;2022-12-31T06:24:03;3.40;;;1.00;;
75261;SDS011;63859;51.064;4.580;2022-12-31T06:26:29;5.88;;;1.33;;
75261;SDS011;63859;51.064;4.580;2022-12-31T06:28:55;4.72;;;1.40;;
75261;SDS011;63859;51.064;4.580;2022-12-31T06:31:20;4.03;;;0.95;;
75261;SDS011;63859;51.064;4.580;2022-12-31T06:33:46;0.98;;;0.70;;
75261;SDS011;63859;51.064;4.580;2022-12-31T06:36:12;4.53;;;1.45;;
75261;SDS011;63859;51.064;4.580;2022-12-31T06:38:40;2.70;;;0.90;;
75261;SDS011;63859;51.064;4.580;2022-12-31T06:41:07;6.47;;;1.10;;
75261;SDS011;63859;51.064;4.580;2022-12-31T06:43:34;7.07;;;1.30;;
75261;SDS011;63859;51.064;4.580;2022-12-31T06:46:00;3.72;;;1.15;;
75261;SDS011;63859;51.064;4.580;2022-12-31T06:48:27;3.50;;;1.02;;
75261;SDS011;63859;51.064;4.580;2022-12-31T06:50:53;4.43;;;1.30;;
75261;SDS011;63859;51.064;4.580;2022-12-31T06:53:19;3.70;;;1.13;;
75261;SDS011;63859;51.064;4.580;2022-12-31T06:55:44;2.05;;;1.13;;
75261;SDS011;63859;51.064;4.580;2022-12-31T06:58:12;3.90;;;1.25;;
75261;SDS011;63859;51.064;4.580;2022-12-31T07:00:46;3.97;;;1.20;;
75261;SDS011;63859;51.064;4.580;2022-12-31T07:03:31;6.60;;;1.30;;
75261;SDS011;63859;51.064;4.580;2022-12-31T07:06:01;2.58;;;1.10;;
75261;SDS011;63859;51.064;4.580;2022-12-31T07:08:44;6.15;;;1.38;;
75261;SDS011;63859;51.064;4.580;2022-12-31T07:11:27;2.85;;;1.20;;
75261;SDS011;63859;51.064;4.580;2022-12-31T07:19:14;3.50;;;1.00;;
75261;SDS011;63859;51.064;4.580;2022-12-31T07:21:57;6.57;;;1.25;;
75261;SDS011;63859;51.064;4.580;2022-12-31T07:24:23;4.05;;;1.17;;
75261;SDS011;63859;51.064;4.580;2022-12-31T07:31:52;4.35;;;1.08;;
75261;SDS011;63859;51.064;4.580;2022-12-31T07:37:15;4.38;;;1.13;;
75261;SDS011;63859;51.064;4.580;2022-12-31T07:42:43;2.53;;;0.95;;
75261;SDS011;63859;51.064;4.580;2022-12-31T07:45:24;2.15;;;1.08;;
75261;SDS011;63859;51.064;4.580;2022-12-31T07:47:56;3.03;;;1.05;;
75261;SDS011;63859;51.064;4.580;2022-12-31T07:50:22;3.40;;;1.10;;
75261;SDS011;63859;51.064;4.580;2022-12-31T07:52:48;4.30;;;0.93;;
75261;SDS011;63859;51.064;4.580;2022-12-31T07:55:13;4.80;;;1.52;;
75261;SDS011;63859;51.064;4.580;2022-12-31T07:57:56;2.63;;;1.00;;
75261;SDS011;63859;51.064;4.580;2022-12-31T08:00:32;6.55;;;1.10;;
75261;SDS011;63859;51.064;4.580;2022-12-31T08:03:17;1.67;;;0.75;;
75261;SDS011;63859;51.064;4.580;2022-12-31T08:06:11;2.40;;;1.05;;
75261;SDS011;63859;51.064;4.580;2022-12-31T08:08:45;2.65;;;1.20;;
75261;SDS011;63859;51.064;4.580;2022-12-31T08:13:57;3.33;;;1.00;;
75261;SDS011;63859;51.064;4.580;2022-12-31T08:16:25;4.88;;;1.27;;
75261;SDS011;63859;51.064;4.580;2022-12-31T08:18:50;3.25;;;1.10;;
75261;SDS011;63859;51.064;4.580;2022-12-31T08:26:17;3.15;;;1.05;;
75261;SDS011;63859;51.064;4.580;2022-12-31T08:41:56;3.75;;;1.15;;
75261;SDS011;63859;51.064;4.580;2022-12-31T08:49:28;6.85;;;1.40;;
75261;SDS011;63859;51.064;4.580;2022-12-31T08:51:57;6.82;;;1.30;;
75261;SDS011;63859;51.064;4.580;2022-12-31T08:54:23;4.13;;;1.10;;
75261;SDS011;63859;51.064;4.580;2022-12-31T09:04:29;5.10;;;1.27;;
75261;SDS011;63859;51.064;4.580;2022-12-31T09:07:21;2.40;;;1.35;;
75261;SDS011;63859;51.064;4.580;2022-12-31T09:10:30;2.08;;;1.20;;
75261;SDS011;63859;51.064;4.580;2022-12-31T09:13:09;4.55;;;1.42;;
75261;SDS011;63859;51.064;4.580;2022-12-31T09:16:06;8.05;;;1.42;;
75261;SDS011;63859;51.064;4.580;2022-12-31T09:18:42;4.40;;;1.10;;
75261;SDS011;63859;51.064;4.580;2022-12-31T09:21:09;5.63;;;1.50;;
75261;SDS011;63859;51.064;4.580;2022-12-31T09:23:36;5.05;;;1.50;;
75261;SDS011;63859;51.064;4.580;2022-12-31T09:37:41;5.15;;;1.33;;
75261;SDS011;63859;51.064;4.580;2022-12-31T09:45:47;4.60;;;1.60;;
75261;SDS011;63859;51.064;4.580;2022-12-31T09:48:36;7.60;;;1.65;;
75261;SDS011;63859;51.064;4.580;2022-12-31T09:51:37;4.03;;;1.13;;
75261;SDS011;63859;51.064;4.580;2022-12-31T10:00:00;3.35;;;1.67;;
75261;SDS011;63859;51.064;4.580;2022-12-31T10:10:55;7.50;;;2.15;;
75261;SDS011;63859;51.064;4.580;2022-12-31T10:18:51;8.85;;;1.58;;
75261;SDS011;63859;51.064;4.580;2022-12-31T10:29:46;8.82;;;1.70;;
75261;SDS011;63859;51.064;4.580;2022-12-31T10:32:29;6.68;;;1.70;;
75261;SDS011;63859;51.064;4.580;2022-12-31T10:35:00;8.10;;;1.52;;
75261;SDS011;63859;51.064;4.580;2022-12-31T10:54:18;4.70;;;2.00;;
75261;SDS011;63859;51.064;4.580;2022-12-31T11:15:53;10.30;;;1.60;;
75261;SDS011;63859;51.064;4.580;2022-12-31T11:21:26;5.55;;;1.75;;
75261;SDS011;63859;51.064;4.580;2022-12-31T11:23:57;5.68;;;1.80;;
75261;SDS011;63859;51.064;4.580;2022-12-31T11:26:57;5.95;;;1.52;;
75261;SDS011;63859;51.064;4.580;2022-12-31T11:32:32;3.50;;;1.73;;
75261;SDS011;63859;51.064;4.580;2022-12-31T11:35:24;8.77;;;2.08;;
75261;SDS011;63859;51.064;4.580;2022-12-31T11:40:59;9.45;;;2.03;;
75261;SDS011;63859;51.064;4.580;2022-12-31T11:46:22;6.90;;;2.15;;
75261;SDS011;63859;51.064;4.580;2022-12-31T11:59:56;10.07;;;2.80;;
75261;SDS011;63859;51.064;4.580;2022-12-31T12:02:29;6.00;;;1.63;;
75261;SDS011;63859;51.064;4.580;2022-12-31T12:04:59;7.97;;;1.90;;
75261;SDS011;63859;51.064;4.580;2022-12-31T12:07:27;5.50;;;1.80;;
75261;SDS011;63859;51.064;4.580;2022-12-31T12:09:55;5.32;;;1.80;;
75261;SDS011;63859;51.064;4.580;2022-12-31T12:12:25;7.80;;;2.10;;
75261;SDS011;63859;51.064;4.580;2022-12-31T12:15:01;7.90;;;2.03;;
75261;SDS011;63859;51.064;4.580;2022-12-31T12:17:32;5.45;;;1.70;;
75261;SDS011;63859;51.064;4.580;2022-12-31T12:20:01;7.22;;;1.58;;
75261;SDS011;63859;51.064;4.580;2022-12-31T12:22:32;6.40;;;1.80;;
75261;SDS011;63859;51.064;4.580;2022-12-31T12:25:03;11.48;;;2.08;;
75261;SDS011;63859;51.064;4.580;2022-12-31T12:27:40;9.05;;;1.75;;
75261;SDS011;63859;51.064;4.580;2022-12-31T12:30:10;5.88;;;1.65;;
75261;SDS011;63859;51.064;4.580;2022-12-31T12:32:57;7.05;;;1.83;;
75261;SDS011;63859;51.064;4.580;2022-12-31T12:35:32;6.43;;;1.83;;
75261;SDS011;63859;51.064;4.580;2022-12-31T12:40:29;7.15;;;1.77;;
75261;SDS011;63859;51.064;4.580;2022-12-31T12:42:55;6.28;;;1.70;;
75261;SDS011;63859;51.064;4.580;2022-12-31T12:45:25;8.18;;;1.73;;
75261;SDS011;63859;51.064;4.580;2022-12-31T12:48:00;6.25;;;1.70;;
75261;SDS011;63859;51.064;4.580;2022-12-31T12:50:37;6.57;;;1.60;;
75261;SDS011;63859;51.064;4.580;2022-12-31T12:55:58;5.75;;;2.20;;
75261;SDS011;63859;51.064;4.580;2022-12-31T12:58:40;6.78;;;1.95;;
75261;SDS011;63859;51.064;4.580;2022-12-31T13:07:15;9.30;;;2.20;;
75261;SDS011;63859;51.064;4.580;2022-12-31T13:10:07;5.68;;;2.08;;
75261;SDS011;63859;51.064;4.580;2022-12-31T13:13:03;7.35;;;1.95;;
75261;SDS011;63859;51.064;4.580;2022-12-31T13:21:25;11.73;;;2.30;;
75261;SDS011;63859;51.064;4.580;2022-12-31T13:24:02;12.30;;;2.30;;
75261;SDS011;63859;51.064;4.580;2022-12-31T13:26:46;9.85;;;2.35;;
75261;SDS011;63859;51.064;4.580;2022-12-31T13:29:28;11.95;;;2.53;;
75261;SDS011;63859;51.064;4.580;2022-12-31T13:31:57;9.57;;;2.30;;
75261;SDS011;63859;51.064;4.580;2022-12-31T13:34:39;8.85;;;2.30;;
75261;SDS011;63859;51.064;4.580;2022-12-31T13:37:17;8.00;;;2.47;;
75261;SDS011;63859;51.064;4.580;2022-12-31T13:39:55;6.40;;;2.60;;
75261;SDS011;63859;51.064;4.580;2022-12-31T13:42:31;6.93;;;2.35;;
75261;SDS011;63859;51.064;4.580;2022-12-31T13:45:04;9.05;;;2.40;;
75261;SDS011;63859;51.064;4.580;2022-12-31T13:47:38;7.97;;;2.42;;
75261;SDS011;63859;51.064;4.580;2022-12-31T13:50:16;8.05;;;2.35;;
75261;SDS011;63859;51.064;4.580;2022-12-31T13:52:56;6.70;;;2.30;;
75261;SDS011;63859;51.064;4.580;2022-12-31T13:55:29;6.28;;;2.50;;
75261;SDS011;63859;51.064;4.580;2022-12-31T14:00:33;5.78;;;2.40;;
75261;SDS011;63859;51.064;4.580;2022-12-31T14:03:17;4.60;;;1.80;;
75261;SDS011;63859;51.064;4.580;2022-12-31T14:08:37;10.38;;;2.65;;
75261;SDS011;63859;51.064;4.580;2022-12-31T14:11:05;10.30;;;2.45;;
75261;SDS011;63859;51.064;4.580;2022-12-31T14:19:22;8.13;;;1.80;;
75261;SDS011;63859;51.064;4.580;2022-12-31T14:24:57;6.32;;;2.40;;
75261;SDS011;63859;51.064;4.580;2022-12-31T14:27:34;6.25;;;2.30;;
75261;SDS011;63859;51.064;4.580;2022-12-31T14:30:24;6.78;;;2.20;;
75261;SDS011;63859;51.064;4.580;2022-12-31T14:33:00;5.07;;;2.42;;
75261;SDS011;63859;51.064;4.580;2022-12-31T14:36:08;6.80;;;2.28;;
75261;SDS011;63859;51.064;4.580;2022-12-31T14:52:34;6.22;;;2.20;;
75261;SDS011;63859;51.064;4.580;2022-12-31T14:57:39;5.25;;;2.30;;
75261;SDS011;63859;51.064;4.580;2022-12-31T15:05:29;7.20;;;2.22;;
75261;SDS011;63859;51.064;4.580;2022-12-31T15:08:08;11.30;;;2.20;;
75261;SDS011;63859;51.064;4.580;2022-12-31T15:24:30;5.90;;;2.42;;
75261;SDS011;63859;51.064;4.580;2022-12-31T15:26:57;8.68;;;2.40;;
75261;SDS011;63859;51.064;4.580;2022-12-31T15:29:32;6.15;;;2.08;;
75261;SDS011;63859;51.064;4.580;2022-12-31T15:32:06;7.45;;;2.08;;
75261;SDS011;63859;51.064;4.580;2022-12-31T15:34:39;7.15;;;2.33;;
75261;SDS011;63859;51.064;4.580;2022-12-31T15:37:06;6.57;;;2.15;;
75261;SDS011;63859;51.064;4.580;2022-12-31T15:40:02;8.38;;;2.50;;
75261;SDS011;63859;51.064;4.580;2022-12-31T15:45:41;7.38;;;2.25;;
75261;SDS011;63859;51.064;4.580;2022-12-31T15:48:23;8.70;;;2.08;;
75261;SDS011;63859;51.064;4.580;2022-12-31T15:50:55;4.55;;;2.00;;
75261;SDS011;63859;51.064;4.580;2022-12-31T15:53:34;9.98;;;2.25;;
75261;SDS011;63859;51.064;4.580;2022-12-31T15:56:05;9.02;;;2.40;;
75261;SDS011;63859;51.064;4.580;2022-12-31T15:58:33;8.32;;;2.30;;
75261;SDS011;63859;51.064;4.580;2022-12-31T16:03:40;6.55;;;2.08;;
75261;SDS011;63859;51.064;4.580;2022-12-31T16:06:10;8.40;;;2.45;;
75261;SDS011;63859;51.064;4.580;2022-12-31T16:08:37;10.70;;;2.35;;
75261;SDS011;63859;51.064;4.580;2022-12-31T16:11:05;8.48;;;2.25;;
75261;SDS011;63859;51.064;4.580;2022-12-31T16:13:33;7.22;;;2.25;;
75261;SDS011;63859;51.064;4.580;2022-12-31T16:16:27;6.07;;;2.00;;
75261;SDS011;63859;51.064;4.580;2022-12-31T16:18:54;7.30;;;2.10;;
75261;SDS011;63859;51.064;4.580;2022-12-31T16:21:31;6.38;;;2.28;;
75261;SDS011;63859;51.064;4.580;2022-12-31T16:24:05;10.95;;;2.55;;
75261;SDS011;63859;51.064;4.580;2022-12-31T16:26:51;4.22;;;2.20;;
75261;SDS011;63859;51.064;4.580;2022-12-31T16:29:19;6.25;;;2.40;;
75261;SDS011;63859;51.064;4.580;2022-12-31T16:31:47;7.40;;;2.35;;
75261;SDS011;63859;51.064;4.580;2022-12-31T16:34:16;7.70;;;2.45;;
75261;SDS011;63859;51.064;4.580;2022-12-31T16:37:05;4.18;;;1.80;;
75261;SDS011;63859;51.064;4.580;2022-12-31T16:39:34;7.13;;;2.13;;
75261;SDS011;63859;51.064;4.580;2022-12-31T16:44:38;12.35;;;2.90;;
75261;SDS011;63859;51.064;4.580;2022-12-31T16:47:05;7.90;;;3.22;;
75261;SDS011;63859;51.064;4.580;2022-12-31T16:49:34;7.68;;;2.40;;
75261;SDS011;63859;51.064;4.580;2022-12-31T16:52:03;8.05;;;3.28;;
75261;SDS011;63859;51.064;4.580;2022-12-31T16:54:39;5.68;;;2.42;;
75261;SDS011;63859;51.064;4.580;2022-12-31T16:57:14;12.35;;;2.70;;
75261;SDS011;63859;51.064;4.580;2022-12-31T16:59:44;6.68;;;2.85;;
75261;SDS011;63859;51.064;4.580;2022-12-31T17:02:17;6.43;;;2.50;;
75261;SDS011;63859;51.064;4.580;2022-12-31T17:04:47;10.25;;;2.40;;
75261;SDS011;63859;51.064;4.580;2022-12-31T17:07:23;9.68;;;2.42;;
75261;SDS011;63859;51.064;4.580;2022-12-31T17:12:33;10.82;;;2.50;;
75261;SDS011;63859;51.064;4.580;2022-12-31T17:15:04;7.80;;;2.70;;
75261;SDS011;63859;51.064;4.580;2022-12-31T17:17:31;7.47;;;2.70;;
75261;SDS011;63859;51.064;4.580;2022-12-31T17:20:02;8.07;;;2.38;;
75261;SDS011;63859;51.064;4.580;2022-12-31T17:22:39;5.60;;;2.10;;
75261;SDS011;63859;51.064;4.580;2022-12-31T17:25:12;9.13;;;2.30;;
75261;SDS011;63859;51.064;4.580;2022-12-31T17:28:00;5.25;;;2.85;;
75261;SDS011;63859;51.064;4.580;2022-12-31T17:32:57;6.70;;;2.30;;
75261;SDS011;63859;51.064;4.580;2022-12-31T17:35:32;14.43;;;2.70;;
75261;SDS011;63859;51.064;4.580;2022-12-31T17:40:48;6.15;;;2.20;;
75261;SDS011;63859;51.064;4.580;2022-12-31T17:43:19;6.97;;;2.40;;
75261;SDS011;63859;51.064;4.580;2022-12-31T17:45:47;6.88;;;2.75;;
75261;SDS011;63859;51.064;4.580;2022-12-31T17:48:15;6.43;;;2.30;;
75261;SDS011;63859;51.064;4.580;2022-12-31T17:50:46;11.80;;;2.55;;
75261;SDS011;63859;51.064;4.580;2022-12-31T17:53:17;10.32;;;2.45;;
75261;SDS011;63859;51.064;4.580;2022-12-31T17:55:43;8.32;;;2.70;;
75261;SDS011;63859;51.064;4.580;2022-12-31T17:58:53;10.02;;;2.20;;
75261;SDS011;63859;51.064;4.580;2022-12-31T18:01:07;12.25;;;2.90;;
75261;SDS011;63859;51.064;4.580;2022-12-31T18:03:33;10.77;;;2.97;;
75261;SDS011;63859;51.064;4.580;2022-12-31T18:05:59;11.35;;;2.63;;
75261;SDS011;63859;51.064;4.580;2022-12-31T18:08:25;11.57;;;2.38;;
75261;SDS011;63859;51.064;4.580;2022-12-31T18:10:51;14.27;;;2.40;;
75261;SDS011;63859;51.064;4.580;2022-12-31T18:13:19;7.68;;;2.75;;
75261;SDS011;63859;51.064;4.580;2022-12-31T18:15:48;4.63;;;2.03;;
75261;SDS011;63859;51.064;4.580;2022-12-31T18:20:43;10.63;;;2.35;;
75261;SDS011;63859;51.064;4.580;2022-12-31T18:23:12;13.02;;;2.58;;
75261;SDS011;63859;51.064;4.580;2022-12-31T18:25:46;11.40;;;2.75;;
75261;SDS011;63859;51.064;4.580;2022-12-31T18:28:12;9.23;;;2.78;;
75261;SDS011;63859;51.064;4.580;2022-12-31T18:30:38;8.82;;;2.55;;
75261;SDS011;63859;51.064;4.580;2022-12-31T18:33:04;7.57;;;2.45;;
75261;SDS011;63859;51.064;4.580;2022-12-31T18:35:30;6.78;;;2.53;;
75261;SDS011;63859;51.064;4.580;2022-12-31T18:37:57;8.77;;;2.40;;
75261;SDS011;63859;51.064;4.580;2022-12-31T18:40:23;8.73;;;2.40;;
75261;SDS011;63859;51.064;4.580;2022-12-31T18:42:49;11.43;;;2.60;;
75261;SDS011;63859;51.064;4.580;2022-12-31T18:45:16;7.78;;;2.67;;
75261;SDS011;63859;51.064;4.580;2022-12-31T18:47:43;13.95;;;2.88;;
75261;SDS011;63859;51.064;4.580;2022-12-31T18:50:13;12.15;;;2.85;;
75261;SDS011;63859;51.064;4.580;2022-12-31T18:52:41;12.77;;;2.17;;
75261;SDS011;63859;51.064;4.580;2022-12-31T18:55:18;10.95;;;2.35;;
75261;SDS011;63859;51.064;4.580;2022-12-31T18:57:48;9.40;;;2.60;;
75261;SDS011;63859;51.064;4.580;2022-12-31T19:00:14;12.65;;;2.53;;
75261;SDS011;63859;51.064;4.580;2022-12-31T19:02:40;6.63;;;2.10;;
75261;SDS011;63859;51.064;4.580;2022-12-31T19:05:25;8.15;;;2.53;;
75261;SDS011;63859;51.064;4.580;2022-12-31T19:07:53;7.57;;;2.55;;
75261;SDS011;63859;51.064;4.580;2022-12-31T19:10:19;10.43;;;2.60;;
75261;SDS011;63859;51.064;4.580;2022-12-31T19:12:45;10.10;;;2.67;;
75261;SDS011;63859;51.064;4.580;2022-12-31T19:17:45;12.50;;;2.70;;
75261;SDS011;63859;51.064;4.580;2022-12-31T19:20:11;12.48;;;2.90;;
75261;SDS011;63859;51.064;4.580;2022-12-31T19:22:37;10.48;;;3.08;;
75261;SDS011;63859;51.064;4.580;2022-12-31T19:25:04;5.65;;;2.40;;
75261;SDS011;63859;51.064;4.580;2022-12-31T19:27:39;9.07;;;2.70;;
75261;SDS011;63859;51.064;4.580;2022-12-31T19:30:05;11.27;;;3.15;;